ROST FLYPLASS current weather conditions

sailwx.info

Wind from 080 at 10 knots

Air temperature 4.0° C
Visibility: greater than 5.4 NM
Dewpoint -2.0° C

Last reported at 2014-Oct-31 18:50 UTC.
Time now 2014-Nov-01 03:29 UTC

Location: N 67°31' E 012°06'.
View on Google Maps.

See reports from other nearby stations

  
Tides and Currents Weather Stations Pressure Air Temp Water Temp Dewpoint Dewpoint Depression Visibility Wind Speed Wind Dir Waves Ship Positions
date/time (UTC)wind fromknots sea level pressurealtimeterstation pressurevisibilityair tempwater tempwave heightnotes
2014-Oct-31 18:50 080 10 5.4 4.0
2014-Oct-31 18:20 070 11 5.4 4.0
2014-Oct-31 17:50 060 10 5.4 4.0
2014-Oct-31 17:20 060 10 5.4 4.0
2014-Oct-31 16:50 060 11 5.4 4.0
2014-Oct-31 07:50 050 10 5.4 3.0
2014-Oct-31 07:20 350 12 5.4 4.0
2014-Oct-31 06:20 010 6 5.4 3.0
2014-Oct-31 05:50 070 6 5.4 3.0
2014-Oct-30 19:20 340 18 5.4 4.0
2014-Oct-30 18:50 330 14 5.4 5.0
2014-Oct-30 18:20 360 14 5.4 4.0
2014-Oct-30 17:50 340 16 5.4 5.0
2014-Oct-30 17:20 350 16 5.4 5.0
2014-Oct-30 16:50 350 18 5.4 5.0
2014-Oct-30 08:20 320 16 5.4 6.0 Showers in the vicinity.
2014-Oct-30 07:50 310 13 5.4 6.0 Showers in the vicinity.
2014-Oct-30 06:50 310 15 5.4 6.0 Showers in the vicinity.
2014-Oct-30 06:20 310 14 5.4 6.0 Showers in the vicinity.
2014-Oct-30 05:50 320 17 5.4 6.0 Light rain showers.